sensor_id;sensor_type;location;lat;lon;timestamp;P1;durP1;ratioP1;P2;durP2;ratioP2
73599;SDS011;61877;48.246;9.220;2023-11-18T00:02:10;7.57;;;3.67;;
73599;SDS011;61877;48.246;9.220;2023-11-18T00:04:37;8.07;;;3.80;;
73599;SDS011;61877;48.246;9.220;2023-11-18T00:07:02;8.07;;;3.53;;
73599;SDS011;61877;48.246;9.220;2023-11-18T00:09:28;7.57;;;3.30;;
73599;SDS011;61877;48.246;9.220;2023-11-18T00:11:53;7.00;;;3.60;;
73599;SDS011;61877;48.246;9.220;2023-11-18T00:14:19;7.30;;;3.25;;
73599;SDS011;61877;48.246;9.220;2023-11-18T00:16:44;7.07;;;2.83;;
73599;SDS011;61877;48.246;9.220;2023-11-18T00:19:09;7.43;;;3.43;;
73599;SDS011;61877;48.246;9.220;2023-11-18T00:21:36;7.20;;;3.20;;
73599;SDS011;61877;48.246;9.220;2023-11-18T00:24:01;7.28;;;2.85;;
73599;SDS011;61877;48.246;9.220;2023-11-18T00:26:27;6.43;;;2.80;;
73599;SDS011;61877;48.246;9.220;2023-11-18T00:28:52;8.77;;;3.30;;
73599;SDS011;61877;48.246;9.220;2023-11-18T00:31:18;7.07;;;2.90;;
73599;SDS011;61877;48.246;9.220;2023-11-18T00:33:43;9.53;;;4.70;;
73599;SDS011;61877;48.246;9.220;2023-11-18T00:36:09;8.90;;;3.87;;
73599;SDS011;61877;48.246;9.220;2023-11-18T00:38:35;9.80;;;4.45;;
73599;SDS011;61877;48.246;9.220;2023-11-18T00:41:01;12.07;;;4.80;;
73599;SDS011;61877;48.246;9.220;2023-11-18T00:43:26;12.52;;;4.90;;
73599;SDS011;61877;48.246;9.220;2023-11-18T00:45:52;8.83;;;4.00;;
73599;SDS011;61877;48.246;9.220;2023-11-18T00:48:20;9.33;;;4.30;;
73599;SDS011;61877;48.246;9.220;2023-11-18T00:50:45;11.07;;;5.03;;
73599;SDS011;61877;48.246;9.220;2023-11-18T00:53:11;11.57;;;5.37;;
73599;SDS011;61877;48.246;9.220;2023-11-18T00:55:37;10.20;;;4.73;;
73599;SDS011;61877;48.246;9.220;2023-11-18T00:58:03;11.18;;;4.80;;
73599;SDS011;61877;48.246;9.220;2023-11-18T01:00:28;9.00;;;4.30;;
73599;SDS011;61877;48.246;9.220;2023-11-18T01:02:54;10.13;;;4.97;;
73599;SDS011;61877;48.246;9.220;2023-11-18T01:05:19;10.27;;;4.30;;
73599;SDS011;61877;48.246;9.220;2023-11-18T01:07:45;10.00;;;4.80;;
73599;SDS011;61877;48.246;9.220;2023-11-18T01:10:11;9.93;;;4.27;;
73599;SDS011;61877;48.246;9.220;2023-11-18T01:12:38;9.07;;;4.20;;
73599;SDS011;61877;48.246;9.220;2023-11-18T01:15:03;9.60;;;4.50;;
73599;SDS011;61877;48.246;9.220;2023-11-18T01:17:29;8.57;;;4.30;;
73599;SDS011;61877;48.246;9.220;2023-11-18T01:19:55;9.20;;;4.30;;
73599;SDS011;61877;48.246;9.220;2023-11-18T01:22:20;8.27;;;4.20;;
73599;SDS011;61877;48.246;9.220;2023-11-18T01:24:46;7.70;;;3.93;;
73599;SDS011;61877;48.246;9.220;2023-11-18T01:27:11;7.90;;;3.73;;
73599;SDS011;61877;48.246;9.220;2023-11-18T01:29:38;8.57;;;4.00;;
73599;SDS011;61877;48.246;9.220;2023-11-18T01:32:04;10.07;;;4.47;;
73599;SDS011;61877;48.246;9.220;2023-11-18T01:34:30;8.88;;;4.30;;
73599;SDS011;61877;48.246;9.220;2023-11-18T01:36:55;10.23;;;5.37;;
73599;SDS011;61877;48.246;9.220;2023-11-18T01:39:20;13.43;;;4.90;;
73599;SDS011;61877;48.246;9.220;2023-11-18T01:41:46;14.73;;;4.83;;
73599;SDS011;61877;48.246;9.220;2023-11-18T01:44:11;12.25;;;4.93;;
73599;SDS011;61877;48.246;9.220;2023-11-18T01:46:38;9.63;;;4.50;;
73599;SDS011;61877;48.246;9.220;2023-11-18T01:49:04;12.07;;;5.10;;
73599;SDS011;61877;48.246;9.220;2023-11-18T01:51:29;13.13;;;4.70;;
73599;SDS011;61877;48.246;9.220;2023-11-18T01:53:55;8.75;;;4.13;;
73599;SDS011;61877;48.246;9.220;2023-11-18T01:56:22;9.10;;;4.50;;
73599;SDS011;61877;48.246;9.220;2023-11-18T01:58:50;8.82;;;4.45;;
73599;SDS011;61877;48.246;9.220;2023-11-18T02:01:16;9.38;;;4.40;;
73599;SDS011;61877;48.246;9.220;2023-11-18T02:03:43;8.93;;;4.30;;
73599;SDS011;61877;48.246;9.220;2023-11-18T02:06:08;9.35;;;4.70;;
73599;SDS011;61877;48.246;9.220;2023-11-18T02:08:33;8.80;;;4.67;;
73599;SDS011;61877;48.246;9.220;2023-11-18T02:11:00;9.07;;;4.13;;
73599;SDS011;61877;48.246;9.220;2023-11-18T02:13:31;8.27;;;4.15;;
73599;SDS011;61877;48.246;9.220;2023-11-18T02:15:59;8.70;;;4.05;;
73599;SDS011;61877;48.246;9.220;2023-11-18T02:18:29;8.38;;;4.20;;
73599;SDS011;61877;48.246;9.220;2023-11-18T02:20:56;9.20;;;4.33;;
73599;SDS011;61877;48.246;9.220;2023-11-18T02:23:22;9.40;;;3.90;;
73599;SDS011;61877;48.246;9.220;2023-11-18T02:25:49;9.27;;;4.32;;
73599;SDS011;61877;48.246;9.220;2023-11-18T02:28:15;10.70;;;5.00;;
73599;SDS011;61877;48.246;9.220;2023-11-18T02:30:40;14.50;;;5.20;;
73599;SDS011;61877;48.246;9.220;2023-11-18T02:33:09;10.65;;;5.35;;
73599;SDS011;61877;48.246;9.220;2023-11-18T02:35:41;11.57;;;5.70;;
73599;SDS011;61877;48.246;9.220;2023-11-18T02:38:13;10.23;;;4.95;;
73599;SDS011;61877;48.246;9.220;2023-11-18T02:40:40;10.55;;;5.15;;
73599;SDS011;61877;48.246;9.220;2023-11-18T02:43:09;10.15;;;4.75;;
73599;SDS011;61877;48.246;9.220;2023-11-18T02:45:35;8.77;;;4.03;;
73599;SDS011;61877;48.246;9.220;2023-11-18T02:48:02;8.83;;;3.63;;
73599;SDS011;61877;48.246;9.220;2023-11-18T02:50:28;8.65;;;3.70;;
73599;SDS011;61877;48.246;9.220;2023-11-18T02:52:53;12.63;;;3.93;;
73599;SDS011;61877;48.246;9.220;2023-11-18T02:55:19;8.20;;;3.75;;
73599;SDS011;61877;48.246;9.220;2023-11-18T02:57:44;9.40;;;4.10;;
73599;SDS011;61877;48.246;9.220;2023-11-18T03:00:12;9.93;;;3.72;;
73599;SDS011;61877;48.246;9.220;2023-11-18T03:02:38;9.43;;;3.63;;
73599;SDS011;61877;48.246;9.220;2023-11-18T03:05:04;8.93;;;3.90;;
73599;SDS011;61877;48.246;9.220;2023-11-18T03:07:30;9.98;;;4.45;;
73599;SDS011;61877;48.246;9.220;2023-11-18T03:09:56;8.73;;;4.37;;
73599;SDS011;61877;48.246;9.220;2023-11-18T03:12:21;9.60;;;5.00;;
73599;SDS011;61877;48.246;9.220;2023-11-18T03:14:46;10.10;;;4.97;;
73599;SDS011;61877;48.246;9.220;2023-11-18T03:17:13;8.90;;;4.30;;
73599;SDS011;61877;48.246;9.220;2023-11-18T03:19:38;7.70;;;3.33;;
73599;SDS011;61877;48.246;9.220;2023-11-18T03:22:04;9.05;;;3.75;;
73599;SDS011;61877;48.246;9.220;2023-11-18T03:24:29;8.23;;;3.70;;
73599;SDS011;61877;48.246;9.220;2023-11-18T03:26:55;8.03;;;3.67;;
73599;SDS011;61877;48.246;9.220;2023-11-18T03:29:20;8.00;;;3.70;;
73599;SDS011;61877;48.246;9.220;2023-11-18T03:31:45;8.13;;;3.40;;
73599;SDS011;61877;48.246;9.220;2023-11-18T03:34:12;8.00;;;3.90;;
73599;SDS011;61877;48.246;9.220;2023-11-18T03:36:38;7.28;;;3.80;;
73599;SDS011;61877;48.246;9.220;2023-11-18T03:39:03;7.93;;;3.50;;
73599;SDS011;61877;48.246;9.220;2023-11-18T03:41:29;7.90;;;3.83;;
73599;SDS011;61877;48.246;9.220;2023-11-18T03:43:54;8.20;;;3.93;;
73599;SDS011;61877;48.246;9.220;2023-11-18T03:46:19;7.80;;;3.53;;
73599;SDS011;61877;48.246;9.220;2023-11-18T03:48:45;7.90;;;3.60;;
73599;SDS011;61877;48.246;9.220;2023-11-18T03:51:12;7.47;;;3.30;;
73599;SDS011;61877;48.246;9.220;2023-11-18T03:53:37;7.47;;;3.60;;
73599;SDS011;61877;48.246;9.220;2023-11-18T03:56:02;7.80;;;3.70;;
73599;SDS011;61877;48.246;9.220;2023-11-18T03:58:28;7.70;;;3.40;;
73599;SDS011;61877;48.246;9.220;2023-11-18T04:00:54;7.47;;;3.50;;
73599;SDS011;61877;48.246;9.220;2023-11-18T04:03:19;7.77;;;3.70;;
73599;SDS011;61877;48.246;9.220;2023-11-18T04:05:44;8.27;;;3.80;;
73599;SDS011;61877;48.246;9.220;2023-11-18T04:08:11;7.70;;;3.23;;
73599;SDS011;61877;48.246;9.220;2023-11-18T04:10:36;7.57;;;3.30;;
73599;SDS011;61877;48.246;9.220;2023-11-18T04:13:02;7.83;;;3.57;;
73599;SDS011;61877;48.246;9.220;2023-11-18T04:15:30;7.97;;;3.57;;
73599;SDS011;61877;48.246;9.220;2023-11-18T04:17:55;7.38;;;3.50;;
73599;SDS011;61877;48.246;9.220;2023-11-18T04:20:21;7.97;;;3.77;;
73599;SDS011;61877;48.246;9.220;2023-11-18T04:22:46;8.80;;;4.00;;
73599;SDS011;61877;48.246;9.220;2023-11-18T04:25:13;8.15;;;3.60;;
73599;SDS011;61877;48.246;9.220;2023-11-18T04:27:38;7.73;;;3.57;;
73599;SDS011;61877;48.246;9.220;2023-11-18T04:30:05;8.07;;;4.05;;
73599;SDS011;61877;48.246;9.220;2023-11-18T04:32:31;8.00;;;3.90;;
73599;SDS011;61877;48.246;9.220;2023-11-18T04:34:56;7.97;;;3.73;;
73599;SDS011;61877;48.246;9.220;2023-11-18T04:37:22;8.50;;;3.93;;
73599;SDS011;61877;48.246;9.220;2023-11-18T04:39:47;8.83;;;3.77;;
73599;SDS011;61877;48.246;9.220;2023-11-18T04:42:14;8.60;;;4.13;;
73599;SDS011;61877;48.246;9.220;2023-11-18T04:44:39;7.80;;;3.85;;
73599;SDS011;61877;48.246;9.220;2023-11-18T04:47:05;8.00;;;3.80;;
73599;SDS011;61877;48.246;9.220;2023-11-18T04:49:30;8.00;;;3.80;;
73599;SDS011;61877;48.246;9.220;2023-11-18T04:51:55;8.67;;;3.60;;
73599;SDS011;61877;48.246;9.220;2023-11-18T04:54:21;8.10;;;4.10;;
73599;SDS011;61877;48.246;9.220;2023-11-18T04:56:46;9.00;;;3.83;;
73599;SDS011;61877;48.246;9.220;2023-11-18T04:59:13;8.77;;;3.97;;
73599;SDS011;61877;48.246;9.220;2023-11-18T05:01:38;10.23;;;4.45;;
73599;SDS011;61877;48.246;9.220;2023-11-18T05:04:04;17.83;;;4.40;;
73599;SDS011;61877;48.246;9.220;2023-11-18T05:06:29;25.03;;;4.33;;
73599;SDS011;61877;48.246;9.220;2023-11-18T05:08:55;13.35;;;4.25;;
73599;SDS011;61877;48.246;9.220;2023-11-18T05:11:20;8.90;;;4.00;;
73599;SDS011;61877;48.246;9.220;2023-11-18T05:13:45;8.90;;;4.40;;
73599;SDS011;61877;48.246;9.220;2023-11-18T05:16:12;8.53;;;4.10;;
73599;SDS011;61877;48.246;9.220;2023-11-18T05:18:37;8.00;;;3.42;;
73599;SDS011;61877;48.246;9.220;2023-11-18T05:21:03;9.33;;;4.20;;
73599;SDS011;61877;48.246;9.220;2023-11-18T05:23:29;9.07;;;4.45;;
73599;SDS011;61877;48.246;9.220;2023-11-18T05:25:55;10.43;;;4.83;;
73599;SDS011;61877;48.246;9.220;2023-11-18T05:28:20;9.20;;;4.40;;
73599;SDS011;61877;48.246;9.220;2023-11-18T05:30:45;8.00;;;3.70;;
73599;SDS011;61877;48.246;9.220;2023-11-18T05:33:12;8.23;;;3.90;;
73599;SDS011;61877;48.246;9.220;2023-11-18T05:35:38;8.75;;;3.95;;
73599;SDS011;61877;48.246;9.220;2023-11-18T05:38:03;8.07;;;3.77;;
73599;SDS011;61877;48.246;9.220;2023-11-18T05:40:28;8.30;;;3.67;;
73599;SDS011;61877;48.246;9.220;2023-11-18T05:42:54;9.17;;;4.00;;
73599;SDS011;61877;48.246;9.220;2023-11-18T05:45:19;8.30;;;3.63;;
73599;SDS011;61877;48.246;9.220;2023-11-18T05:47:45;8.37;;;4.00;;
73599;SDS011;61877;48.246;9.220;2023-11-18T05:50:11;7.97;;;3.90;;
73599;SDS011;61877;48.246;9.220;2023-11-18T05:52:37;8.18;;;3.80;;
73599;SDS011;61877;48.246;9.220;2023-11-18T05:55:02;7.93;;;3.90;;
73599;SDS011;61877;48.246;9.220;2023-11-18T05:57:28;8.50;;;4.05;;
73599;SDS011;61877;48.246;9.220;2023-11-18T05:59:54;9.30;;;4.07;;
73599;SDS011;61877;48.246;9.220;2023-11-18T06:02:19;10.13;;;4.80;;
73599;SDS011;61877;48.246;9.220;2023-11-18T06:04:44;12.47;;;6.37;;
73599;SDS011;61877;48.246;9.220;2023-11-18T06:07:11;14.73;;;7.73;;
73599;SDS011;61877;48.246;9.220;2023-11-18T06:09:37;12.18;;;7.03;;
73599;SDS011;61877;48.246;9.220;2023-11-18T06:12:02;13.80;;;7.93;;
73599;SDS011;61877;48.246;9.220;2023-11-18T06:14:28;12.68;;;6.38;;
73599;SDS011;61877;48.246;9.220;2023-11-18T06:16:54;11.67;;;4.13;;
73599;SDS011;61877;48.246;9.220;2023-11-18T06:19:19;11.40;;;4.03;;
73599;SDS011;61877;48.246;9.220;2023-11-18T06:21:44;8.97;;;4.13;;
73599;SDS011;61877;48.246;9.220;2023-11-18T06:24:11;25.45;;;6.13;;
73599;SDS011;61877;48.246;9.220;2023-11-18T06:26:36;20.10;;;5.93;;
73599;SDS011;61877;48.246;9.220;2023-11-18T06:29:02;28.55;;;4.80;;
73599;SDS011;61877;48.246;9.220;2023-11-18T06:31:28;45.65;;;5.13;;
73599;SDS011;61877;48.246;9.220;2023-11-18T06:33:53;106.20;;;6.70;;
73599;SDS011;61877;48.246;9.220;2023-11-18T06:36:19;75.27;;;7.70;;
73599;SDS011;61877;48.246;9.220;2023-11-18T06:38:45;20.88;;;5.63;;
73599;SDS011;61877;48.246;9.220;2023-11-18T06:41:12;10.33;;;5.13;;
73599;SDS011;61877;48.246;9.220;2023-11-18T06:43:38;41.85;;;6.55;;
73599;SDS011;61877;48.246;9.220;2023-11-18T06:46:05;30.15;;;5.50;;
73599;SDS011;61877;48.246;9.220;2023-11-18T06:48:32;15.75;;;4.72;;
73599;SDS011;61877;48.246;9.220;2023-11-18T06:50:58;36.00;;;4.67;;
73599;SDS011;61877;48.246;9.220;2023-11-18T06:53:23;29.80;;;4.87;;
73599;SDS011;61877;48.246;9.220;2023-11-18T06:55:48;22.97;;;4.50;;
73599;SDS011;61877;48.246;9.220;2023-11-18T06:58:15;36.30;;;5.20;;
73599;SDS011;61877;48.246;9.220;2023-11-18T07:00:40;26.67;;;4.67;;
73599;SDS011;61877;48.246;9.220;2023-11-18T07:03:07;15.30;;;4.82;;
73599;SDS011;61877;48.246;9.220;2023-11-18T07:05:33;17.73;;;4.07;;
73599;SDS011;61877;48.246;9.220;2023-11-18T07:07:58;10.95;;;4.70;;
73599;SDS011;61877;48.246;9.220;2023-11-18T07:10:24;34.20;;;6.03;;
73599;SDS011;61877;48.246;9.220;2023-11-18T07:12:49;24.20;;;4.33;;
73599;SDS011;61877;48.246;9.220;2023-11-18T07:15:16;16.87;;;3.67;;
73599;SDS011;61877;48.246;9.220;2023-11-18T07:17:42;13.30;;;3.33;;
73599;SDS011;61877;48.246;9.220;2023-11-18T07:20:07;11.95;;;3.40;;
73599;SDS011;61877;48.246;9.220;2023-11-18T07:22:34;13.52;;;3.92;;
73599;SDS011;61877;48.246;9.220;2023-11-18T07:24:59;21.90;;;4.00;;
73599;SDS011;61877;48.246;9.220;2023-11-18T07:27:25;12.13;;;3.80;;
73599;SDS011;61877;48.246;9.220;2023-11-18T07:29:50;8.23;;;3.97;;
73599;SDS011;61877;48.246;9.220;2023-11-18T07:32:17;14.10;;;4.03;;
73599;SDS011;61877;48.246;9.220;2023-11-18T07:34:42;14.57;;;4.47;;
73599;SDS011;61877;48.246;9.220;2023-11-18T07:37:07;11.10;;;3.42;;
73599;SDS011;61877;48.246;9.220;2023-11-18T07:39:33;7.03;;;2.80;;
73599;SDS011;61877;48.246;9.220;2023-11-18T07:41:58;7.67;;;3.17;;
73599;SDS011;61877;48.246;9.220;2023-11-18T07:44:24;7.10;;;3.23;;
73599;SDS011;61877;48.246;9.220;2023-11-18T07:46:49;6.63;;;2.80;;
73599;SDS011;61877;48.246;9.220;2023-11-18T07:49:16;7.30;;;3.37;;
73599;SDS011;61877;48.246;9.220;2023-11-18T07:51:41;7.72;;;3.30;;
73599;SDS011;61877;48.246;9.220;2023-11-18T07:54:07;8.77;;;4.10;;
73599;SDS011;61877;48.246;9.220;2023-11-18T07:56:32;13.83;;;6.77;;
73599;SDS011;61877;48.246;9.220;2023-11-18T07:58:58;9.07;;;4.20;;
73599;SDS011;61877;48.246;9.220;2023-11-18T08:01:23;18.90;;;9.50;;
73599;SDS011;61877;48.246;9.220;2023-11-18T08:03:49;14.47;;;5.97;;
73599;SDS011;61877;48.246;9.220;2023-11-18T08:06:15;9.23;;;4.50;;
73599;SDS011;61877;48.246;9.220;2023-11-18T08:08:41;8.10;;;3.90;;
73599;SDS011;61877;48.246;9.220;2023-11-18T08:11:06;12.70;;;5.10;;
73599;SDS011;61877;48.246;9.220;2023-11-18T08:13:35;14.40;;;5.10;;
73599;SDS011;61877;48.246;9.220;2023-11-18T08:16:00;15.03;;;5.83;;
73599;SDS011;61877;48.246;9.220;2023-11-18T08:18:26;13.02;;;5.28;;
73599;SDS011;61877;48.246;9.220;2023-11-18T08:20:51;10.07;;;4.37;;
73599;SDS011;61877;48.246;9.220;2023-11-18T08:23:18;10.27;;;4.90;;
73599;SDS011;61877;48.246;9.220;2023-11-18T08:25:43;7.53;;;3.33;;
73599;SDS011;61877;48.246;9.220;2023-11-18T08:28:09;8.07;;;3.60;;
73599;SDS011;61877;48.246;9.220;2023-11-18T08:30:36;11.00;;;4.63;;
73599;SDS011;61877;48.246;9.220;2023-11-18T08:33:02;16.23;;;5.97;;
73599;SDS011;61877;48.246;9.220;2023-11-18T08:35:28;16.43;;;6.17;;
73599;SDS011;61877;48.246;9.220;2023-11-18T08:37:53;9.60;;;4.40;;
73599;SDS011;61877;48.246;9.220;2023-11-18T08:40:20;9.80;;;4.53;;
73599;SDS011;61877;48.246;9.220;2023-11-18T08:42:46;9.32;;;4.15;;
73599;SDS011;61877;48.246;9.220;2023-11-18T08:45:12;10.20;;;3.90;;
73599;SDS011;61877;48.246;9.220;2023-11-18T08:47:37;8.17;;;3.70;;
73599;SDS011;61877;48.246;9.220;2023-11-18T08:50:06;8.33;;;3.60;;
73599;SDS011;61877;48.246;9.220;2023-11-18T08:52:32;11.43;;;5.15;;
73599;SDS011;61877;48.246;9.220;2023-11-18T08:55:01;10.35;;;3.97;;
73599;SDS011;61877;48.246;9.220;2023-11-18T08:57:32;7.70;;;3.70;;
73599;SDS011;61877;48.246;9.220;2023-11-18T08:59:57;7.68;;;3.80;;
73599;SDS011;61877;48.246;9.220;2023-11-18T09:02:26;7.90;;;3.80;;
73599;SDS011;61877;48.246;9.220;2023-11-18T09:04:52;7.57;;;3.83;;
73599;SDS011;61877;48.246;9.220;2023-11-18T09:07:17;8.00;;;3.70;;
73599;SDS011;61877;48.246;9.220;2023-11-18T09:10:04;11.05;;;5.35;;
73599;SDS011;61877;48.246;9.220;2023-11-18T09:12:31;7.80;;;3.70;;
73599;SDS011;61877;48.246;9.220;2023-11-18T09:14:59;7.93;;;3.53;;
73599;SDS011;61877;48.246;9.220;2023-11-18T09:17:28;7.63;;;3.20;;
73599;SDS011;61877;48.246;9.220;2023-11-18T09:19:53;7.95;;;3.85;;
73599;SDS011;61877;48.246;9.220;2023-11-18T09:22:19;8.03;;;3.77;;
73599;SDS011;61877;48.246;9.220;2023-11-18T09:24:44;8.15;;;3.80;;
73599;SDS011;61877;48.246;9.220;2023-11-18T09:27:09;8.10;;;3.53;;
73599;SDS011;61877;48.246;9.220;2023-11-18T09:29:36;8.23;;;3.50;;
73599;SDS011;61877;48.246;9.220;2023-11-18T09:32:02;9.25;;;4.18;;
73599;SDS011;61877;48.246;9.220;2023-11-18T09:34:28;8.40;;;4.07;;
73599;SDS011;61877;48.246;9.220;2023-11-18T09:43:04;8.77;;;3.55;;
73599;SDS011;61877;48.246;9.220;2023-11-18T09:45:34;8.43;;;4.03;;
73599;SDS011;61877;48.246;9.220;2023-11-18T09:47:59;9.25;;;3.80;;
73599;SDS011;61877;48.246;9.220;2023-11-18T09:50:26;8.80;;;4.00;;
73599;SDS011;61877;48.246;9.220;2023-11-18T09:52:56;8.03;;;3.60;;
73599;SDS011;61877;48.246;9.220;2023-11-18T09:55:28;8.77;;;3.80;;
73599;SDS011;61877;48.246;9.220;2023-11-18T09:58:03;8.30;;;3.70;;
73599;SDS011;61877;48.246;9.220;2023-11-18T10:00:29;8.82;;;3.97;;
73599;SDS011;61877;48.246;9.220;2023-11-18T10:03:02;8.13;;;3.80;;
73599;SDS011;61877;48.246;9.220;2023-11-18T10:08:23;9.18;;;3.88;;
73599;SDS011;61877;48.246;9.220;2023-11-18T10:10:51;8.07;;;3.88;;
73599;SDS011;61877;48.246;9.220;2023-11-18T10:13:17;8.38;;;3.90;;
73599;SDS011;61877;48.246;9.220;2023-11-18T10:15:49;8.68;;;3.88;;
73599;SDS011;61877;48.246;9.220;2023-11-18T10:18:26;9.47;;;4.43;;
73599;SDS011;61877;48.246;9.220;2023-11-18T10:20:52;8.45;;;3.92;;
73599;SDS011;61877;48.246;9.220;2023-11-18T10:23:18;9.50;;;4.10;;
73599;SDS011;61877;48.246;9.220;2023-11-18T10:25:45;9.55;;;4.32;;
73599;SDS011;61877;48.246;9.220;2023-11-18T10:28:20;9.25;;;4.30;;
73599;SDS011;61877;48.246;9.220;2023-11-18T10:30:46;11.13;;;5.20;;
73599;SDS011;61877;48.246;9.220;2023-11-18T10:33:14;20.38;;;9.27;;
73599;SDS011;61877;48.246;9.220;2023-11-18T10:35:56;11.13;;;4.65;;
73599;SDS011;61877;48.246;9.220;2023-11-18T10:38:30;9.88;;;4.28;;
73599;SDS011;61877;48.246;9.220;2023-11-18T10:40:59;9.52;;;4.35;;
73599;SDS011;61877;48.246;9.220;2023-11-18T10:43:34;9.57;;;4.50;;
73599;SDS011;61877;48.246;9.220;2023-11-18T10:46:12;10.48;;;4.65;;
73599;SDS011;61877;48.246;9.220;2023-11-18T10:48:39;9.85;;;4.72;;
73599;SDS011;61877;48.246;9.220;2023-11-18T10:51:05;10.07;;;4.35;;
73599;SDS011;61877;48.246;9.220;2023-11-18T10:53:31;10.70;;;4.60;;
73599;SDS011;61877;48.246;9.220;2023-11-18T10:55:56;11.83;;;4.60;;
73599;SDS011;61877;48.246;9.220;2023-11-18T10:58:22;10.77;;;4.57;;
73599;SDS011;61877;48.246;9.220;2023-11-18T11:00:48;9.57;;;4.50;;
73599;SDS011;61877;48.246;9.220;2023-11-18T11:03:15;11.68;;;4.80;;
73599;SDS011;61877;48.246;9.220;2023-11-18T11:05:41;9.63;;;4.50;;
73599;SDS011;61877;48.246;9.220;2023-11-18T11:08:06;10.13;;;4.77;;
73599;SDS011;61877;48.246;9.220;2023-11-18T11:10:32;10.27;;;4.55;;
73599;SDS011;61877;48.246;9.220;2023-11-18T11:13:00;10.23;;;4.90;;
73599;SDS011;61877;48.246;9.220;2023-11-18T11:15:29;10.52;;;5.20;;
73599;SDS011;61877;48.246;9.220;2023-11-18T11:17:57;10.55;;;4.75;;
73599;SDS011;61877;48.246;9.220;2023-11-18T11:20:28;12.57;;;5.80;;
73599;SDS011;61877;48.246;9.220;2023-11-18T11:23:01;10.27;;;4.38;;
73599;SDS011;61877;48.246;9.220;2023-11-18T11:25:33;11.25;;;5.32;;
73599;SDS011;61877;48.246;9.220;2023-11-18T11:28:06;10.40;;;4.75;;
73599;SDS011;61877;48.246;9.220;2023-11-18T11:30:38;10.13;;;4.82;;
73599;SDS011;61877;48.246;9.220;2023-11-18T11:33:09;10.07;;;4.03;;
73599;SDS011;61877;48.246;9.220;2023-11-18T11:35:41;10.23;;;4.63;;
73599;SDS011;61877;48.246;9.220;2023-11-18T11:38:11;11.00;;;4.90;;
73599;SDS011;61877;48.246;9.220;2023-11-18T11:40:39;10.85;;;4.75;;
73599;SDS011;61877;48.246;9.220;2023-11-18T11:43:06;9.48;;;4.65;;
73599;SDS011;61877;48.246;9.220;2023-11-18T11:45:34;9.57;;;4.17;;
73599;SDS011;61877;48.246;9.220;2023-11-18T11:48:00;9.88;;;4.53;;
73599;SDS011;61877;48.246;9.220;2023-11-18T11:50:29;24.98;;;9.38;;
73599;SDS011;61877;48.246;9.220;2023-11-18T11:53:02;13.40;;;5.85;;
73599;SDS011;61877;48.246;9.220;2023-11-18T11:55:37;12.70;;;5.17;;
73599;SDS011;61877;48.246;9.220;2023-11-18T12:00:53;9.90;;;4.32;;
73599;SDS011;61877;48.246;9.220;2023-11-18T12:03:18;10.27;;;4.60;;
73599;SDS011;61877;48.246;9.220;2023-11-18T12:05:47;10.32;;;4.50;;
73599;SDS011;61877;48.246;9.220;2023-11-18T12:08:15;10.30;;;4.90;;
73599;SDS011;61877;48.246;9.220;2023-11-18T12:10:50;10.55;;;4.68;;
73599;SDS011;61877;48.246;9.220;2023-11-18T12:13:19;10.20;;;4.37;;
73599;SDS011;61877;48.246;9.220;2023-11-18T12:15:48;9.95;;;4.43;;
73599;SDS011;61877;48.246;9.220;2023-11-18T12:18:17;9.40;;;4.35;;
73599;SDS011;61877;48.246;9.220;2023-11-18T12:20:43;10.32;;;4.80;;
73599;SDS011;61877;48.246;9.220;2023-11-18T12:23:09;10.38;;;4.60;;
73599;SDS011;61877;48.246;9.220;2023-11-18T12:25:38;10.47;;;5.13;;
73599;SDS011;61877;48.246;9.220;2023-11-18T12:28:07;11.15;;;5.03;;
73599;SDS011;61877;48.246;9.220;2023-11-18T12:30:41;9.73;;;4.37;;
73599;SDS011;61877;48.246;9.220;2023-11-18T12:33:09;10.70;;;4.85;;
73599;SDS011;61877;48.246;9.220;2023-11-18T12:35:37;10.47;;;4.77;;
73599;SDS011;61877;48.246;9.220;2023-11-18T12:38:38;10.67;;;5.20;;
73599;SDS011;61877;48.246;9.220;2023-11-18T12:41:29;12.77;;;4.82;;
73599;SDS011;61877;48.246;9.220;2023-11-18T12:44:02;11.50;;;5.18;;
73599;SDS011;61877;48.246;9.220;2023-11-18T12:46:47;10.35;;;4.88;;
73599;SDS011;61877;48.246;9.220;2023-11-18T12:49:14;10.48;;;4.63;;
73599;SDS011;61877;48.246;9.220;2023-11-18T12:51:55;10.23;;;4.77;;
73599;SDS011;61877;48.246;9.220;2023-11-18T12:54:28;11.40;;;5.32;;
73599;SDS011;61877;48.246;9.220;2023-11-18T12:56:56;11.68;;;5.70;;
73599;SDS011;61877;48.246;9.220;2023-11-18T12:59:21;11.85;;;5.53;;
73599;SDS011;61877;48.246;9.220;2023-11-18T13:01:47;10.80;;;4.80;;
73599;SDS011;61877;48.246;9.220;2023-11-18T13:04:12;10.45;;;5.38;;
73599;SDS011;61877;48.246;9.220;2023-11-18T13:06:38;12.37;;;5.50;;
73599;SDS011;61877;48.246;9.220;2023-11-18T13:09:03;12.30;;;5.97;;
73599;SDS011;61877;48.246;9.220;2023-11-18T13:11:29;11.27;;;5.43;;
73599;SDS011;61877;48.246;9.220;2023-11-18T13:13:56;14.43;;;7.53;;
73599;SDS011;61877;48.246;9.220;2023-11-18T13:16:21;15.13;;;7.13;;
73599;SDS011;61877;48.246;9.220;2023-11-18T13:18:47;12.37;;;6.50;;
73599;SDS011;61877;48.246;9.220;2023-11-18T13:21:16;16.33;;;7.30;;
73599;SDS011;61877;48.246;9.220;2023-11-18T13:23:48;20.85;;;8.27;;
73599;SDS011;61877;48.246;9.220;2023-11-18T13:26:14;16.07;;;7.37;;
73599;SDS011;61877;48.246;9.220;2023-11-18T13:28:42;16.05;;;7.40;;
73599;SDS011;61877;48.246;9.220;2023-11-18T13:31:09;13.90;;;6.77;;
73599;SDS011;61877;48.246;9.220;2023-11-18T13:33:38;10.82;;;5.25;;
73599;SDS011;61877;48.246;9.220;2023-11-18T13:36:04;10.27;;;4.88;;
73599;SDS011;61877;48.246;9.220;2023-11-18T13:38:30;10.23;;;4.75;;
73599;SDS011;61877;48.246;9.220;2023-11-18T13:40:56;9.77;;;4.30;;
73599;SDS011;61877;48.246;9.220;2023-11-18T13:43:22;9.15;;;4.18;;
73599;SDS011;61877;48.246;9.220;2023-11-18T13:45:50;10.13;;;4.80;;
73599;SDS011;61877;48.246;9.220;2023-11-18T13:48:17;10.60;;;4.68;;
73599;SDS011;61877;48.246;9.220;2023-11-18T13:50:43;12.07;;;5.30;;
73599;SDS011;61877;48.246;9.220;2023-11-18T13:53:09;11.20;;;4.77;;
73599;SDS011;61877;48.246;9.220;2023-11-18T13:55:34;10.30;;;4.55;;
73599;SDS011;61877;48.246;9.220;2023-11-18T13:58:00;10.43;;;5.10;;
73599;SDS011;61877;48.246;9.220;2023-11-18T14:00:26;10.40;;;4.67;;
73599;SDS011;61877;48.246;9.220;2023-11-18T14:02:53;10.30;;;4.78;;
73599;SDS011;61877;48.246;9.220;2023-11-18T14:05:20;10.77;;;5.70;;
73599;SDS011;61877;48.246;9.220;2023-11-18T14:07:47;11.20;;;5.05;;
73599;SDS011;61877;48.246;9.220;2023-11-18T14:10:12;9.63;;;4.63;;
73599;SDS011;61877;48.246;9.220;2023-11-18T14:12:38;11.23;;;5.00;;
73599;SDS011;61877;48.246;9.220;2023-11-18T14:15:03;10.87;;;4.93;;
73599;SDS011;61877;48.246;9.220;2023-11-18T14:17:29;9.55;;;4.80;;
73599;SDS011;61877;48.246;9.220;2023-11-18T14:19:55;10.73;;;4.80;;
73599;SDS011;61877;48.246;9.220;2023-11-18T14:22:21;9.43;;;4.63;;
73599;SDS011;61877;48.246;9.220;2023-11-18T14:24:47;10.93;;;5.57;;
73599;SDS011;61877;48.246;9.220;2023-11-18T14:27:12;11.27;;;5.80;;
73599;SDS011;61877;48.246;9.220;2023-11-18T14:29:38;14.68;;;6.60;;
73599;SDS011;61877;48.246;9.220;2023-11-18T14:32:04;10.53;;;5.43;;
73599;SDS011;61877;48.246;9.220;2023-11-18T14:34:29;11.15;;;5.85;;
73599;SDS011;61877;48.246;9.220;2023-11-18T14:36:55;12.33;;;5.77;;
73599;SDS011;61877;48.246;9.220;2023-11-18T14:39:22;11.10;;;5.37;;
73599;SDS011;61877;48.246;9.220;2023-11-18T14:41:47;10.45;;;5.45;;
73599;SDS011;61877;48.246;9.220;2023-11-18T14:44:13;12.68;;;5.00;;
73599;SDS011;61877;48.246;9.220;2023-11-18T14:46:38;9.13;;;4.60;;
73599;SDS011;61877;48.246;9.220;2023-11-18T14:49:04;9.83;;;5.10;;
73599;SDS011;61877;48.246;9.220;2023-11-18T14:51:29;10.30;;;5.13;;